Time,TemperatureF,DewpointF,PressureIn,WindDirection,WindDirectionDegrees,WindSpeedMPH,WindSpeedGustMPH,Humidity,HourlyPrecipIn,Conditions,Clouds,dailyrainin,SolarRadiationWatts/m^2,SoftwareType,DateUTC
2013-07-07 00:01:00,58.0,53.0,-100.00,East,85,4.0,10.0,83,0.00,,,1.16,1.000000,,2013-07-07 06:01:00,
2013-07-07 00:11:00,58.0,53.0,-100.00,East,85,4.0,10.0,83,0.00,,,1.16,1.000000,,2013-07-07 06:11:00,
2013-07-07 00:21:00,58.0,53.0,-100.00,East,85,4.0,10.0,83,0.00,,,1.16,1.000000,,2013-07-07 06:21:00,
2013-07-07 00:32:00,58.0,53.0,-100.00,East,85,4.0,10.0,83,0.00,,,1.16,1.000000,,2013-07-07 06:32:00,
2013-07-07 01:01:00,60.0,53.0,-100.00,East,87,5.0,7.0,79,0.00,,,1.16,1.000000,,2013-07-07 07:01:00,
2013-07-07 01:11:00,60.0,53.0,-100.00,East,87,5.0,7.0,79,0.00,,,1.16,1.000000,,2013-07-07 07:11:00,
2013-07-07 01:22:00,60.0,53.0,-100.00,East,87,5.0,7.0,79,0.00,,,1.16,1.000000,,2013-07-07 07:22:00,
2013-07-07 01:33:00,60.0,53.0,-100.00,East,87,5.0,7.0,79,0.00,,,1.16,1.000000,,2013-07-07 07:33:00,
2013-07-07 02:02:00,60.0,50.0,-100.00,East,93,4.0,8.0,69,0.00,,,1.16,1.000000,,2013-07-07 08:02:00,
2013-07-07 02:12:00,60.0,50.0,-100.00,East,93,4.0,8.0,69,0.00,,,1.16,1.000000,,2013-07-07 08:12:00,
2013-07-07 02:22:00,60.0,50.0,-100.00,East,93,4.0,8.0,69,0.00,,,1.16,1.000000,,2013-07-07 08:22:00,
2013-07-07 02:33:00,60.0,50.0,-100.00,East,93,4.0,8.0,69,0.00,,,1.16,1.000000,,2013-07-07 08:33:00,
2013-07-07 03:02:00,60.0,50.0,-100.00,East,94,4.0,7.0,69,0.00,,,1.16,1.000000,,2013-07-07 09:02:00,
2013-07-07 03:12:00,60.0,50.0,-100.00,East,94,4.0,7.0,69,0.00,,,1.16,1.000000,,2013-07-07 09:12:00,
2013-07-07 03:22:00,60.0,50.0,-100.00,East,94,4.0,7.0,69,0.00,,,1.16,1.000000,,2013-07-07 09:22:00,
2013-07-07 03:34:00,60.0,50.0,-100.00,East,94,4.0,7.0,69,0.00,,,1.16,1.000000,,2013-07-07 09:34:00,
2013-07-07 04:03:00,60.0,48.0,-100.00,East,94,5.0,6.0,65,0.00,,,1.16,1.000000,,2013-07-07 10:03:00,
2013-07-07 04:12:00,60.0,48.0,-100.00,East,94,5.0,6.0,65,0.00,,,1.16,1.000000,,2013-07-07 10:12:00,
2013-07-07 04:22:00,60.0,48.0,-100.00,East,94,5.0,6.0,65,0.00,,,1.16,1.000000,,2013-07-07 10:22:00,
2013-07-07 04:32:00,60.0,48.0,-100.00,East,94,5.0,6.0,65,0.00,,,1.16,1.000000,,2013-07-07 10:32:00,
2013-07-07 05:02:00,57.0,50.0,-100.00,East,99,4.0,7.0,77,0.00,,,-99.99,1.000000,,2013-07-07 11:02:00,
2013-07-07 05:11:00,57.0,50.0,-100.00,East,99,4.0,7.0,77,0.00,,,-99.99,1.000000,,2013-07-07 11:11:00,
2013-07-07 05:22:00,57.0,50.0,-100.00,East,99,4.0,7.0,77,0.00,,,-99.99,1.000000,,2013-07-07 11:22:00,
2013-07-07 05:34:00,57.0,50.0,-100.00,East,99,4.0,7.0,77,0.00,,,-99.99,1.000000,,2013-07-07 11:34:00,
2013-07-07 06:02:00,55.0,49.0,-100.00,East,89,4.0,5.0,80,0.00,,,-99.99,1.000000,,2013-07-07 12:02:00,
2013-07-07 06:12:00,55.0,49.0,-100.00,East,89,4.0,5.0,80,0.00,,,-99.99,1.000000,,2013-07-07 12:12:00,
2013-07-07 06:22:00,55.0,49.0,-100.00,East,89,4.0,5.0,80,0.00,,,-99.99,1.000000,,2013-07-07 12:22:00,
2013-07-07 06:34:00,55.0,49.0,-100.00,East,89,4.0,5.0,80,0.00,,,-99.99,1.000000,,2013-07-07 12:34:00,
2013-07-07 07:02:00,59.0,46.0,-100.00,SSE,148,4.0,5.0,62,0.00,,,1.16,6.000000,,2013-07-07 13:02:00,
2013-07-07 07:11:00,59.0,46.0,-100.00,SSE,148,4.0,5.0,62,0.00,,,1.16,6.000000,,2013-07-07 13:11:00,
2013-07-07 07:22:00,59.0,46.0,-100.00,SSE,148,4.0,5.0,62,0.00,,,1.16,6.000000,,2013-07-07 13:22:00,
2013-07-07 07:34:00,59.0,46.0,-100.00,SSE,148,4.0,5.0,62,0.00,,,1.16,6.000000,,2013-07-07 13:34:00,
2013-07-07 08:02:00,64.0,47.0,-100.00,SE,125,3.0,5.0,55,0.00,,,1.16,46.000000,,2013-07-07 14:02:00,
2013-07-07 08:12:00,64.0,47.0,-100.00,SE,125,3.0,5.0,55,0.00,,,1.16,46.000000,,2013-07-07 14:12:00,
2013-07-07 08:22:00,64.0,47.0,-100.00,SE,125,3.0,5.0,55,0.00,,,1.16,46.000000,,2013-07-07 14:22:00,
2013-07-07 08:33:00,64.0,47.0,-100.00,SE,125,3.0,5.0,55,0.00,,,1.16,46.000000,,2013-07-07 14:33:00,
2013-07-07 09:02:00,71.0,47.0,-100.00,SSE,154,5.0,7.0,42,0.00,,,1.16,246.000000,,2013-07-07 15:02:00,
2013-07-07 09:11:00,71.0,47.0,-100.00,SSE,154,5.0,7.0,42,0.00,,,1.16,246.000000,,2013-07-07 15:11:00,
2013-07-07 09:22:00,71.0,47.0,-100.00,SSE,154,5.0,7.0,42,0.00,,,1.16,246.000000,,2013-07-07 15:22:00,
2013-07-07 09:33:00,71.0,47.0,-100.00,SSE,154,5.0,7.0,42,0.00,,,1.16,246.000000,,2013-07-07 15:33:00,
2013-07-07 10:01:00,74.0,49.0,-100.00,SSW,193,4.0,9.0,41,0.00,,,1.16,444.000000,,2013-07-07 16:01:00,
2013-07-07 10:11:00,74.0,49.0,-100.00,SSW,193,4.0,9.0,41,0.00,,,1.16,444.000000,,2013-07-07 16:11:00,
2013-07-07 10:22:00,74.0,49.0,-100.00,SSW,193,4.0,9.0,41,0.00,,,1.16,444.000000,,2013-07-07 16:22:00,
2013-07-07 10:33:00,74.0,49.0,-100.00,SSW,193,4.0,9.0,41,0.00,,,1.16,444.000000,,2013-07-07 16:33:00,
2013-07-07 11:02:00,76.0,46.0,-100.00,SE,143,4.0,10.0,35,0.00,,,1.16,644.000000,,2013-07-07 17:02:00,
2013-07-07 11:12:00,76.0,46.0,-100.00,SE,143,4.0,10.0,35,0.00,,,1.16,644.000000,,2013-07-07 17:12:00,
2013-07-07 11:22:00,76.0,46.0,-100.00,SE,143,4.0,10.0,35,0.00,,,1.16,644.000000,,2013-07-07 17:22:00,
2013-07-07 11:34:00,76.0,46.0,-100.00,SE,143,4.0,10.0,35,0.00,,,1.16,644.000000,,2013-07-07 17:34:00,
2013-07-07 12:02:00,79.0,48.0,-100.00,SSW,213,5.0,9.0,34,0.00,,,1.16,818.000000,,2013-07-07 18:02:00,
2013-07-07 12:11:00,79.0,48.0,-100.00,SSW,213,5.0,9.0,34,0.00,,,1.16,818.000000,,2013-07-07 18:11:00,
2013-07-07 12:22:00,79.0,48.0,-100.00,SSW,213,5.0,9.0,34,0.00,,,1.16,818.000000,,2013-07-07 18:22:00,
2013-07-07 12:33:00,79.0,48.0,-100.00,SSW,213,5.0,9.0,34,0.00,,,1.16,818.000000,,2013-07-07 18:33:00,
2013-07-07 13:01:00,81.0,48.0,-100.00,SSW,204,4.0,8.0,32,0.00,,,1.16,955.000000,,2013-07-07 19:01:00,
2013-07-07 13:11:00,81.0,48.0,-100.00,SSW,204,4.0,8.0,32,0.00,,,1.16,955.000000,,2013-07-07 19:11:00,
2013-07-07 13:22:00,81.0,48.0,-100.00,SSW,204,4.0,8.0,32,0.00,,,1.16,955.000000,,2013-07-07 19:22:00,
2013-07-07 13:33:00,81.0,48.0,-100.00,SSW,204,4.0,8.0,32,0.00,,,1.16,955.000000,,2013-07-07 19:33:00,
2013-07-07 14:02:00,82.0,47.0,-100.00,SSE,152,6.0,12.0,30,0.00,,,1.16,1005.000000,,2013-07-07 20:02:00,
2013-07-07 14:11:00,82.0,47.0,-100.00,SSE,152,6.0,12.0,30,0.00,,,1.16,1005.000000,,2013-07-07 20:11:00,
2013-07-07 14:22:00,82.0,47.0,-100.00,SSE,152,6.0,12.0,30,0.00,,,1.16,1005.000000,,2013-07-07 20:22:00,
2013-07-07 14:34:00,82.0,47.0,-100.00,SSE,152,6.0,12.0,30,0.00,,,1.16,1005.000000,,2013-07-07 20:34:00,
2013-07-07 15:02:00,84.0,47.0,-100.00,SW,223,7.0,13.0,28,0.00,,,1.16,1042.000000,,2013-07-07 21:02:00,
2013-07-07 15:11:00,84.0,47.0,-100.00,SW,223,7.0,13.0,28,0.00,,,1.16,1042.000000,,2013-07-07 21:11:00,
2013-07-07 15:22:00,84.0,47.0,-100.00,SW,223,7.0,13.0,28,0.00,,,1.16,1042.000000,,2013-07-07 21:22:00,
2013-07-07 15:33:00,84.0,47.0,-100.00,SW,223,7.0,13.0,28,0.00,,,1.16,1042.000000,,2013-07-07 21:33:00,
2013-07-07 16:01:00,84.0,45.0,-100.00,WSW,252,6.0,13.0,26,0.00,,,1.16,809.000000,,2013-07-07 22:01:00,
2013-07-07 16:11:00,84.0,45.0,-100.00,WSW,252,6.0,13.0,26,0.00,,,1.16,809.000000,,2013-07-07 22:11:00,
2013-07-07 16:22:00,84.0,45.0,-100.00,WSW,252,6.0,13.0,26,0.00,,,1.16,809.000000,,2013-07-07 22:22:00,
2013-07-07 16:33:00,84.0,45.0,-100.00,WSW,252,6.0,13.0,26,0.00,,,1.16,809.000000,,2013-07-07 22:33:00,
2013-07-07 17:02:00,85.0,45.0,-100.00,WSW,245,8.0,17.0,25,0.00,,,0.26,705.000000,,2013-07-07 23:02:00,
2013-07-07 17:12:00,85.0,45.0,-100.00,WSW,245,8.0,17.0,25,0.00,,,0.26,705.000000,,2013-07-07 23:12:00,
2013-07-07 17:22:00,85.0,45.0,-100.00,WSW,245,8.0,17.0,25,0.00,,,0.26,705.000000,,2013-07-07 23:22:00,
2013-07-07 17:33:00,85.0,45.0,-100.00,WSW,245,8.0,17.0,25,0.00,,,0.26,705.000000,,2013-07-07 23:33:00,
2013-07-07 18:01:00,84.0,39.0,-100.00,WSW,250,9.0,17.0,20,0.00,,,0.05,753.000000,,2013-07-08 00:01:00,
2013-07-07 18:11:00,84.0,39.0,-100.00,WSW,250,9.0,17.0,20,0.00,,,0.05,753.000000,,2013-07-08 00:11:00,
2013-07-07 18:22:00,84.0,39.0,-100.00,WSW,250,9.0,17.0,20,0.00,,,0.05,753.000000,,2013-07-08 00:22:00,
2013-07-07 18:33:00,84.0,39.0,-100.00,WSW,250,9.0,17.0,20,0.00,,,0.05,753.000000,,2013-07-08 00:33:00,
2013-07-07 19:01:00,78.0,37.0,-100.00,WSW,246,9.0,16.0,23,0.00,,,0.00,165.000000,,2013-07-08 01:01:00,
2013-07-07 19:11:00,78.0,37.0,-100.00,WSW,246,9.0,16.0,23,0.00,,,0.00,165.000000,,2013-07-08 01:11:00,
2013-07-07 19:21:00,78.0,37.0,-100.00,WSW,246,9.0,16.0,23,0.00,,,0.00,165.000000,,2013-07-08 01:21:00,
2013-07-07 19:32:00,78.0,37.0,-100.00,WSW,246,9.0,16.0,23,0.00,,,0.00,165.000000,,2013-07-08 01:32:00,
2013-07-07 20:02:00,72.0,45.0,-100.00,NNW,331,3.0,22.0,38,0.00,,,0.00,74.000000,,2013-07-08 02:02:00,
2013-07-07 20:11:00,72.0,45.0,-100.00,NNW,331,3.0,22.0,38,0.00,,,0.00,74.000000,,2013-07-08 02:11:00,
2013-07-07 20:22:00,72.0,45.0,-100.00,NNW,331,3.0,22.0,38,0.00,,,0.00,74.000000,,2013-07-08 02:22:00,
2013-07-07 20:33:00,72.0,45.0,-100.00,NNW,331,3.0,22.0,38,0.00,,,0.00,74.000000,,2013-07-08 02:33:00,
2013-07-07 21:01:00,70.0,44.0,-100.00,NE,52,3.0,8.0,39,0.00,,,0.00,73.000000,,2013-07-08 03:01:00,
2013-07-07 21:11:00,70.0,44.0,-100.00,NE,52,3.0,8.0,39,0.00,,,0.00,73.000000,,2013-07-08 03:11:00,
2013-07-07 21:22:00,70.0,44.0,-100.00,NE,52,3.0,8.0,39,0.00,,,0.00,73.000000,,2013-07-08 03:22:00,
2013-07-07 21:34:00,70.0,44.0,-100.00,NE,52,3.0,8.0,39,0.00,,,0.00,73.000000,,2013-07-08 03:34:00,
2013-07-07 22:01:00,66.0,49.0,-100.00,NE,51,0.0,4.0,54,0.00,,,-99.99,3.000000,,2013-07-08 04:01:00,
2013-07-07 22:11:00,66.0,49.0,-100.00,NE,51,0.0,4.0,54,0.00,,,-99.99,3.000000,,2013-07-08 04:11:00,
2013-07-07 22:22:00,66.0,49.0,-100.00,NE,51,0.0,4.0,54,0.00,,,-99.99,3.000000,,2013-07-08 04:22:00,
2013-07-07 22:33:00,66.0,49.0,-100.00,NE,51,0.0,4.0,54,0.00,,,-99.99,3.000000,,2013-07-08 04:33:00,
2013-07-07 23:01:00,66.0,47.0,-100.00,NE,40,2.0,3.0,51,0.00,,,0.00,1.000000,,2013-07-08 05:01:00,
2013-07-07 23:11:00,66.0,47.0,-100.00,NE,40,2.0,3.0,51,0.00,,,0.00,1.000000,,2013-07-08 05:11:00,
2013-07-07 23:22:00,66.0,47.0,-100.00,NE,40,2.0,3.0,51,0.00,,,0.00,1.000000,,2013-07-08 05:22:00,
2013-07-07 23:33:00,66.0,47.0,-100.00,NE,40,2.0,3.0,51,0.00,,,0.00,1.000000,,2013-07-08 05:33:00,